West Beaver, Pennsylvania
Current Conditions -  °F | °C
As of 7:53 PM on Monday 20 Oct 2014 (Local Time) from KUNV Reporting Station
Broken Clouds Broken Clouds  
Wind Chill: 52°   Ceiling: 10000
Heat Index: 52°   Visibility: 10mi
Dew Point: 37°   Wind: 5mph
Humidity: 58%   Direction: 210°SSW
Pressure: 29.91"   Gusts: NA
Location:  40.7125°N, 77.3707°W
Report Text: KUNV 202353Z 21004KT 10SM SCT075 BKN100 11/03 A2991
Loading
Personal Weather Stations






























Interactive Weather Map
Tropical Storm Tracking
New forecast layout! Learn more

10-Day Weather Forecast

Advertisements
Track Severe Weather on mobile